KLHM/LHM METAR and TAF weather

Enter ICAO airport designator
Station Type Date Time Source
KLHM METAR 2019/12/06 08:55 UTC NOAA

KLHM 060855Z AUTO 10008KT 10SM BKN050 11/08 A3004 RMK AO1


Station Type Date Time Source
KLHM Decoded METAR 2019/12/06 08:55 UTC NOAA

Station name not available
Dec 06, 2019 - 03:55 AM EST / 2019.12.06 0855 UTC
Wind: from the E (100 degrees) at 9 MPH (8 KT):0
Visibility: 10 mile(s):0
Sky conditions: mostly cloudy
Temperature: 51 F (11 C)
Dew Point: 46 F (8 C)
Relative Humidity: 81%
Pressure (altimeter): 30.04 in. Hg (1017 hPa)
ob: KLHM 060855Z AUTO 10008KT 10SM BKN050 11/08 A3004 RMK AO1
cycle: 9

Station Type Date Time Source
KLHM TAF UTC NOAA

Error!

Example: see airport list